sensor_id;sensor_type;location;lat;lon;timestamp;temperature;humidity
33699;DHT22;20032;52.436;13.312;2023-12-14T00:01:27;5.50;99.90
33699;DHT22;20032;52.436;13.312;2023-12-14T00:03:52;5.50;99.90
33699;DHT22;20032;52.436;13.312;2023-12-14T00:06:18;5.50;99.90
33699;DHT22;20032;52.436;13.312;2023-12-14T00:08:43;5.50;99.90
33699;DHT22;20032;52.436;13.312;2023-12-14T00:11:10;5.50;99.90
33699;DHT22;20032;52.436;13.312;2023-12-14T00:13:36;5.50;99.90
33699;DHT22;20032;52.436;13.312;2023-12-14T00:16:02;5.40;99.90
33699;DHT22;20032;52.436;13.312;2023-12-14T00:18:28;5.50;99.90
33699;DHT22;20032;52.436;13.312;2023-12-14T00:20:53;5.40;99.90
33699;DHT22;20032;52.436;13.312;2023-12-14T00:23:20;5.50;99.90
33699;DHT22;20032;52.436;13.312;2023-12-14T00:25:46;5.40;99.90
33699;DHT22;20032;52.436;13.312;2023-12-14T00:28:11;5.40;99.90
33699;DHT22;20032;52.436;13.312;2023-12-14T00:30:37;5.50;99.90
33699;DHT22;20032;52.436;13.312;2023-12-14T00:33:02;5.40;99.90
33699;DHT22;20032;52.436;13.312;2023-12-14T00:35:28;5.40;99.90
33699;DHT22;20032;52.436;13.312;2023-12-14T00:37:53;5.40;99.90
33699;DHT22;20032;52.436;13.312;2023-12-14T00:40:19;5.30;99.90
33699;DHT22;20032;52.436;13.312;2023-12-14T00:42:44;5.30;99.90
33699;DHT22;20032;52.436;13.312;2023-12-14T00:45:10;5.30;99.90
33699;DHT22;20032;52.436;13.312;2023-12-14T00:47:35;5.30;99.90
33699;DHT22;20032;52.436;13.312;2023-12-14T00:50:01;5.30;99.90
33699;DHT22;20032;52.436;13.312;2023-12-14T00:52:28;5.30;99.90
33699;DHT22;20032;52.436;13.312;2023-12-14T00:54:54;5.30;99.90
33699;DHT22;20032;52.436;13.312;2023-12-14T00:57:19;5.30;99.90
33699;DHT22;20032;52.436;13.312;2023-12-14T00:59:45;5.30;99.90
33699;DHT22;20032;52.436;13.312;2023-12-14T01:02:10;5.30;99.90
33699;DHT22;20032;52.436;13.312;2023-12-14T01:04:36;5.40;99.90
33699;DHT22;20032;52.436;13.312;2023-12-14T01:07:03;5.30;99.90
33699;DHT22;20032;52.436;13.312;2023-12-14T01:09:28;5.30;99.90
33699;DHT22;20032;52.436;13.312;2023-12-14T01:11:54;5.30;99.90
33699;DHT22;20032;52.436;13.312;2023-12-14T01:14:19;5.30;99.90
33699;DHT22;20032;52.436;13.312;2023-12-14T01:16:45;5.30;99.90
33699;DHT22;20032;52.436;13.312;2023-12-14T01:19:10;5.30;99.90
33699;DHT22;20032;52.436;13.312;2023-12-14T01:21:36;5.30;99.90
33699;DHT22;20032;52.436;13.312;2023-12-14T01:24:01;5.30;99.90
33699;DHT22;20032;52.436;13.312;2023-12-14T01:26:27;5.10;99.90
33699;DHT22;20032;52.436;13.312;2023-12-14T01:28:52;5.20;99.90
33699;DHT22;20032;52.436;13.312;2023-12-14T01:31:18;5.30;99.90
33699;DHT22;20032;52.436;13.312;2023-12-14T01:33:44;5.30;99.90
33699;DHT22;20032;52.436;13.312;2023-12-14T01:36:11;5.30;99.90
33699;DHT22;20032;52.436;13.312;2023-12-14T01:38:37;5.30;99.90
33699;DHT22;20032;52.436;13.312;2023-12-14T01:41:02;5.30;99.90
33699;DHT22;20032;52.436;13.312;2023-12-14T01:43:28;5.20;99.90
33699;DHT22;20032;52.436;13.312;2023-12-14T01:45:53;5.20;99.90
33699;DHT22;20032;52.436;13.312;2023-12-14T01:48:19;5.20;99.90
33699;DHT22;20032;52.436;13.312;2023-12-14T01:50:44;5.20;99.90
33699;DHT22;20032;52.436;13.312;2023-12-14T01:53:10;5.20;99.90
33699;DHT22;20032;52.436;13.312;2023-12-14T01:55:35;5.10;99.90
33699;DHT22;20032;52.436;13.312;2023-12-14T01:58:00;5.10;99.90
33699;DHT22;20032;52.436;13.312;2023-12-14T02:00:39;5.00;99.90
33699;DHT22;20032;52.436;13.312;2023-12-14T02:03:06;5.00;99.90
33699;DHT22;20032;52.436;13.312;2023-12-14T02:05:31;5.10;99.90
33699;DHT22;20032;52.436;13.312;2023-12-14T02:07:57;5.00;99.90
33699;DHT22;20032;52.436;13.312;2023-12-14T02:10:23;5.00;99.90
33699;DHT22;20032;52.436;13.312;2023-12-14T02:12:48;5.00;99.90
33699;DHT22;20032;52.436;13.312;2023-12-14T02:15:14;5.00;99.90
33699;DHT22;20032;52.436;13.312;2023-12-14T02:17:39;4.90;99.90
33699;DHT22;20032;52.436;13.312;2023-12-14T02:20:05;4.80;99.90
33699;DHT22;20032;52.436;13.312;2023-12-14T02:22:47;4.90;99.90
33699;DHT22;20032;52.436;13.312;2023-12-14T02:25:14;4.80;99.90
33699;DHT22;20032;52.436;13.312;2023-12-14T02:27:39;4.90;99.90
33699;DHT22;20032;52.436;13.312;2023-12-14T02:30:05;4.80;99.90
33699;DHT22;20032;52.436;13.312;2023-12-14T02:32:31;4.70;99.90
33699;DHT22;20032;52.436;13.312;2023-12-14T02:34:56;4.70;99.90
33699;DHT22;20032;52.436;13.312;2023-12-14T02:37:22;4.70;99.90
33699;DHT22;20032;52.436;13.312;2023-12-14T02:39:47;4.70;99.90
33699;DHT22;20032;52.436;13.312;2023-12-14T02:42:13;4.70;99.90
33699;DHT22;20032;52.436;13.312;2023-12-14T02:44:39;4.70;99.90
33699;DHT22;20032;52.436;13.312;2023-12-14T02:47:04;4.70;99.90
33699;DHT22;20032;52.436;13.312;2023-12-14T02:49:30;4.70;99.90
33699;DHT22;20032;52.436;13.312;2023-12-14T02:51:55;4.70;99.90
33699;DHT22;20032;52.436;13.312;2023-12-14T02:54:20;4.70;99.90
33699;DHT22;20032;52.436;13.312;2023-12-14T02:56:46;4.80;99.90
33699;DHT22;20032;52.436;13.312;2023-12-14T02:59:11;4.70;99.90
33699;DHT22;20032;52.436;13.312;2023-12-14T03:01:37;4.60;99.90
33699;DHT22;20032;52.436;13.312;2023-12-14T03:04:02;4.60;99.90
33699;DHT22;20032;52.436;13.312;2023-12-14T03:06:28;4.60;99.90
33699;DHT22;20032;52.436;13.312;2023-12-14T03:08:53;4.70;99.90
33699;DHT22;20032;52.436;13.312;2023-12-14T03:11:22;4.60;99.90
33699;DHT22;20032;52.436;13.312;2023-12-14T03:13:49;4.50;99.90
33699;DHT22;20032;52.436;13.312;2023-12-14T03:16:14;4.50;99.90
33699;DHT22;20032;52.436;13.312;2023-12-14T03:18:39;4.50;99.90
33699;DHT22;20032;52.436;13.312;2023-12-14T03:21:05;4.50;99.90
33699;DHT22;20032;52.436;13.312;2023-12-14T03:23:31;4.40;99.90
33699;DHT22;20032;52.436;13.312;2023-12-14T03:25:56;4.50;99.90
33699;DHT22;20032;52.436;13.312;2023-12-14T03:28:21;4.60;99.90
33699;DHT22;20032;52.436;13.312;2023-12-14T03:30:47;4.60;99.90
33699;DHT22;20032;52.436;13.312;2023-12-14T03:33:13;4.70;99.90
33699;DHT22;20032;52.436;13.312;2023-12-14T03:35:39;4.60;99.90
33699;DHT22;20032;52.436;13.312;2023-12-14T03:38:07;4.70;99.90
33699;DHT22;20032;52.436;13.312;2023-12-14T03:40:33;4.60;99.90
33699;DHT22;20032;52.436;13.312;2023-12-14T03:42:58;4.60;99.90
33699;DHT22;20032;52.436;13.312;2023-12-14T03:45:23;4.50;99.90
33699;DHT22;20032;52.436;13.312;2023-12-14T03:47:49;4.50;99.90
33699;DHT22;20032;52.436;13.312;2023-12-14T03:50:14;4.50;99.90
33699;DHT22;20032;52.436;13.312;2023-12-14T03:52:40;4.50;99.90
33699;DHT22;20032;52.436;13.312;2023-12-14T03:55:06;4.60;99.90
33699;DHT22;20032;52.436;13.312;2023-12-14T03:57:31;4.60;99.90
33699;DHT22;20032;52.436;13.312;2023-12-14T03:59:57;4.60;99.90
33699;DHT22;20032;52.436;13.312;2023-12-14T04:02:22;4.60;99.90
33699;DHT22;20032;52.436;13.312;2023-12-14T04:04:48;4.60;99.90
33699;DHT22;20032;52.436;13.312;2023-12-14T04:07:14;4.60;99.90
33699;DHT22;20032;52.436;13.312;2023-12-14T04:09:39;4.60;99.90
33699;DHT22;20032;52.436;13.312;2023-12-14T04:12:05;4.60;99.90
33699;DHT22;20032;52.436;13.312;2023-12-14T04:14:30;4.70;99.90
33699;DHT22;20032;52.436;13.312;2023-12-14T04:16:56;4.60;99.90
33699;DHT22;20032;52.436;13.312;2023-12-14T04:19:21;4.60;99.90
33699;DHT22;20032;52.436;13.312;2023-12-14T04:21:47;4.60;99.90
33699;DHT22;20032;52.436;13.312;2023-12-14T04:24:13;4.60;99.90
33699;DHT22;20032;52.436;13.312;2023-12-14T04:26:39;4.60;99.90
33699;DHT22;20032;52.436;13.312;2023-12-14T04:29:06;4.60;99.90
33699;DHT22;20032;52.436;13.312;2023-12-14T04:31:33;4.60;99.90
33699;DHT22;20032;52.436;13.312;2023-12-14T04:33:58;4.50;99.90
33699;DHT22;20032;52.436;13.312;2023-12-14T04:36:24;4.50;99.90
33699;DHT22;20032;52.436;13.312;2023-12-14T04:38:49;4.50;99.90
33699;DHT22;20032;52.436;13.312;2023-12-14T04:41:15;4.50;99.90
33699;DHT22;20032;52.436;13.312;2023-12-14T04:43:40;4.40;99.90
33699;DHT22;20032;52.436;13.312;2023-12-14T04:46:06;4.50;99.90
33699;DHT22;20032;52.436;13.312;2023-12-14T04:48:32;4.50;99.90
33699;DHT22;20032;52.436;13.312;2023-12-14T04:50:57;4.50;99.90
33699;DHT22;20032;52.436;13.312;2023-12-14T04:53:23;4.60;99.90
33699;DHT22;20032;52.436;13.312;2023-12-14T04:55:48;4.60;99.90
33699;DHT22;20032;52.436;13.312;2023-12-14T04:58:13;4.50;99.90
33699;DHT22;20032;52.436;13.312;2023-12-14T05:00:39;4.50;99.90
33699;DHT22;20032;52.436;13.312;2023-12-14T05:03:04;4.50;99.90
33699;DHT22;20032;52.436;13.312;2023-12-14T05:05:30;4.50;99.90
33699;DHT22;20032;52.436;13.312;2023-12-14T05:07:55;4.60;99.90
33699;DHT22;20032;52.436;13.312;2023-12-14T05:10:21;4.60;99.90
33699;DHT22;20032;52.436;13.312;2023-12-14T05:12:46;4.50;99.90
33699;DHT22;20032;52.436;13.312;2023-12-14T05:15:12;4.50;99.90
33699;DHT22;20032;52.436;13.312;2023-12-14T05:17:37;4.50;99.90
33699;DHT22;20032;52.436;13.312;2023-12-14T05:20:07;4.50;99.90
33699;DHT22;20032;52.436;13.312;2023-12-14T05:22:33;4.50;99.90
33699;DHT22;20032;52.436;13.312;2023-12-14T05:24:59;4.60;99.90
33699;DHT22;20032;52.436;13.312;2023-12-14T05:27:24;4.50;99.90
33699;DHT22;20032;52.436;13.312;2023-12-14T05:29:50;4.50;99.90
33699;DHT22;20032;52.436;13.312;2023-12-14T05:32:15;4.50;99.90
33699;DHT22;20032;52.436;13.312;2023-12-14T05:34:41;4.50;99.90
33699;DHT22;20032;52.436;13.312;2023-12-14T05:37:06;4.50;99.90
33699;DHT22;20032;52.436;13.312;2023-12-14T05:39:32;4.50;99.90
33699;DHT22;20032;52.436;13.312;2023-12-14T05:41:57;4.60;99.90
33699;DHT22;20032;52.436;13.312;2023-12-14T05:44:23;4.50;99.90
33699;DHT22;20032;52.436;13.312;2023-12-14T05:46:50;4.50;99.90
33699;DHT22;20032;52.436;13.312;2023-12-14T05:49:15;4.60;99.90
33699;DHT22;20032;52.436;13.312;2023-12-14T05:51:41;4.60;99.90
33699;DHT22;20032;52.436;13.312;2023-12-14T05:54:06;4.70;99.90
33699;DHT22;20032;52.436;13.312;2023-12-14T05:56:32;4.70;99.90
33699;DHT22;20032;52.436;13.312;2023-12-14T05:58:57;4.70;99.90
33699;DHT22;20032;52.436;13.312;2023-12-14T06:01:23;4.70;99.90
33699;DHT22;20032;52.436;13.312;2023-12-14T06:03:49;4.60;99.90
33699;DHT22;20032;52.436;13.312;2023-12-14T06:06:14;4.60;99.90
33699;DHT22;20032;52.436;13.312;2023-12-14T06:08:40;4.70;99.90
33699;DHT22;20032;52.436;13.312;2023-12-14T06:11:06;4.80;99.90
33699;DHT22;20032;52.436;13.312;2023-12-14T06:13:32;4.70;99.90
33699;DHT22;20032;52.436;13.312;2023-12-14T06:15:58;4.60;99.90
33699;DHT22;20032;52.436;13.312;2023-12-14T06:18:24;4.60;99.90
33699;DHT22;20032;52.436;13.312;2023-12-14T06:20:49;4.60;99.90
33699;DHT22;20032;52.436;13.312;2023-12-14T06:23:15;4.60;99.90
33699;DHT22;20032;52.436;13.312;2023-12-14T06:25:40;4.60;99.90
33699;DHT22;20032;52.436;13.312;2023-12-14T06:28:06;4.60;99.90
33699;DHT22;20032;52.436;13.312;2023-12-14T06:30:33;4.70;99.90
33699;DHT22;20032;52.436;13.312;2023-12-14T06:32:58;4.80;99.90
33699;DHT22;20032;52.436;13.312;2023-12-14T06:35:24;4.70;99.90
33699;DHT22;20032;52.436;13.312;2023-12-14T06:37:49;4.60;99.90
33699;DHT22;20032;52.436;13.312;2023-12-14T06:40:15;4.60;99.90
33699;DHT22;20032;52.436;13.312;2023-12-14T06:42:41;4.60;99.90
33699;DHT22;20032;52.436;13.312;2023-12-14T06:45:08;4.60;99.90
33699;DHT22;20032;52.436;13.312;2023-12-14T06:47:33;4.60;99.90
33699;DHT22;20032;52.436;13.312;2023-12-14T06:49:59;4.70;99.90
33699;DHT22;20032;52.436;13.312;2023-12-14T06:52:24;4.80;99.90
33699;DHT22;20032;52.436;13.312;2023-12-14T06:54:50;4.80;99.90
33699;DHT22;20032;52.436;13.312;2023-12-14T06:57:16;4.80;99.90
33699;DHT22;20032;52.436;13.312;2023-12-14T06:59:42;4.70;99.90
33699;DHT22;20032;52.436;13.312;2023-12-14T07:02:07;4.70;99.90
33699;DHT22;20032;52.436;13.312;2023-12-14T07:04:33;4.70;99.90
33699;DHT22;20032;52.436;13.312;2023-12-14T07:06:58;4.70;99.90
33699;DHT22;20032;52.436;13.312;2023-12-14T07:09:24;4.70;99.90
33699;DHT22;20032;52.436;13.312;2023-12-14T07:11:51;4.70;99.90
33699;DHT22;20032;52.436;13.312;2023-12-14T07:14:16;4.70;99.90
33699;DHT22;20032;52.436;13.312;2023-12-14T07:16:42;4.60;99.90
33699;DHT22;20032;52.436;13.312;2023-12-14T07:19:08;4.60;99.90
33699;DHT22;20032;52.436;13.312;2023-12-14T07:21:33;4.60;99.90
33699;DHT22;20032;52.436;13.312;2023-12-14T07:23:59;4.60;99.90
33699;DHT22;20032;52.436;13.312;2023-12-14T07:26:24;4.60;99.90
33699;DHT22;20032;52.436;13.312;2023-12-14T07:28:52;4.60;99.90
33699;DHT22;20032;52.436;13.312;2023-12-14T07:31:18;4.60;99.90
33699;DHT22;20032;52.436;13.312;2023-12-14T07:33:43;4.70;99.90
33699;DHT22;20032;52.436;13.312;2023-12-14T07:36:13;4.70;99.90
33699;DHT22;20032;52.436;13.312;2023-12-14T07:38:39;4.70;99.90
33699;DHT22;20032;52.436;13.312;2023-12-14T07:41:05;4.80;99.90
33699;DHT22;20032;52.436;13.312;2023-12-14T07:43:30;4.80;99.90
33699;DHT22;20032;52.436;13.312;2023-12-14T07:45:57;4.70;99.90
33699;DHT22;20032;52.436;13.312;2023-12-14T07:48:22;4.70;99.90
33699;DHT22;20032;52.436;13.312;2023-12-14T07:50:47;4.80;99.90
33699;DHT22;20032;52.436;13.312;2023-12-14T07:53:13;4.80;99.90
33699;DHT22;20032;52.436;13.312;2023-12-14T07:55:39;4.80;99.90
33699;DHT22;20032;52.436;13.312;2023-12-14T07:58:04;4.80;99.90
33699;DHT22;20032;52.436;13.312;2023-12-14T08:00:30;4.90;99.90
33699;DHT22;20032;52.436;13.312;2023-12-14T08:02:55;4.90;99.90
33699;DHT22;20032;52.436;13.312;2023-12-14T08:05:21;4.90;99.90
33699;DHT22;20032;52.436;13.312;2023-12-14T08:07:46;4.90;99.90
33699;DHT22;20032;52.436;13.312;2023-12-14T08:10:13;4.80;99.90
33699;DHT22;20032;52.436;13.312;2023-12-14T08:12:38;4.70;99.90
33699;DHT22;20032;52.436;13.312;2023-12-14T08:15:04;4.80;99.90
33699;DHT22;20032;52.436;13.312;2023-12-14T08:17:30;4.70;99.90
33699;DHT22;20032;52.436;13.312;2023-12-14T08:19:55;4.70;99.90
33699;DHT22;20032;52.436;13.312;2023-12-14T08:22:20;4.70;99.90
33699;DHT22;20032;52.436;13.312;2023-12-14T08:24:48;4.70;99.90
33699;DHT22;20032;52.436;13.312;2023-12-14T08:27:13;4.80;99.90
33699;DHT22;20032;52.436;13.312;2023-12-14T08:29:39;4.80;99.90
33699;DHT22;20032;52.436;13.312;2023-12-14T08:32:05;4.80;99.90
33699;DHT22;20032;52.436;13.312;2023-12-14T08:34:30;4.80;99.90
33699;DHT22;20032;52.436;13.312;2023-12-14T08:36:56;4.80;99.90
33699;DHT22;20032;52.436;13.312;2023-12-14T08:39:22;4.90;99.90
33699;DHT22;20032;52.436;13.312;2023-12-14T08:41:47;4.90;99.90
33699;DHT22;20032;52.436;13.312;2023-12-14T08:44:14;4.80;99.90
33699;DHT22;20032;52.436;13.312;2023-12-14T08:46:42;4.90;99.90
33699;DHT22;20032;52.436;13.312;2023-12-14T08:49:08;4.90;99.90
33699;DHT22;20032;52.436;13.312;2023-12-14T08:51:33;4.80;99.90
33699;DHT22;20032;52.436;13.312;2023-12-14T08:53:59;4.90;99.90
33699;DHT22;20032;52.436;13.312;2023-12-14T08:56:25;4.80;99.90
33699;DHT22;20032;52.436;13.312;2023-12-14T08:58:51;4.80;99.90
33699;DHT22;20032;52.436;13.312;2023-12-14T09:01:23;4.80;99.90
33699;DHT22;20032;52.436;13.312;2023-12-14T09:03:49;4.80;99.90
33699;DHT22;20032;52.436;13.312;2023-12-14T09:06:16;4.80;99.90
33699;DHT22;20032;52.436;13.312;2023-12-14T09:08:42;4.90;99.90
33699;DHT22;20032;52.436;13.312;2023-12-14T09:11:08;4.90;99.90
33699;DHT22;20032;52.436;13.312;2023-12-14T09:13:34;4.80;99.90
33699;DHT22;20032;52.436;13.312;2023-12-14T09:15:59;4.80;99.90
33699;DHT22;20032;52.436;13.312;2023-12-14T09:18:26;4.80;99.90
33699;DHT22;20032;52.436;13.312;2023-12-14T09:20:52;4.90;99.90
33699;DHT22;20032;52.436;13.312;2023-12-14T09:23:19;5.00;99.90
33699;DHT22;20032;52.436;13.312;2023-12-14T09:25:45;4.90;99.90
33699;DHT22;20032;52.436;13.312;2023-12-14T09:28:11;4.90;99.90
33699;DHT22;20032;52.436;13.312;2023-12-14T09:30:37;4.90;99.90
33699;DHT22;20032;52.436;13.312;2023-12-14T09:33:03;5.00;99.90
33699;DHT22;20032;52.436;13.312;2023-12-14T09:35:28;5.00;99.90
33699;DHT22;20032;52.436;13.312;2023-12-14T09:37:54;4.90;99.90
33699;DHT22;20032;52.436;13.312;2023-12-14T09:40:22;4.90;99.90
33699;DHT22;20032;52.436;13.312;2023-12-14T09:42:48;4.90;99.90
33699;DHT22;20032;52.436;13.312;2023-12-14T09:45:13;4.90;99.90
33699;DHT22;20032;52.436;13.312;2023-12-14T09:47:41;4.90;99.90
33699;DHT22;20032;52.436;13.312;2023-12-14T09:50:07;4.90;99.90
33699;DHT22;20032;52.436;13.312;2023-12-14T09:52:33;4.90;99.90
33699;DHT22;20032;52.436;13.312;2023-12-14T09:54:59;4.90;99.90
33699;DHT22;20032;52.436;13.312;2023-12-14T09:57:25;4.80;99.90
33699;DHT22;20032;52.436;13.312;2023-12-14T09:59:53;4.90;99.90
33699;DHT22;20032;52.436;13.312;2023-12-14T10:02:19;4.90;99.90
33699;DHT22;20032;52.436;13.312;2023-12-14T10:04:45;4.90;99.90
33699;DHT22;20032;52.436;13.312;2023-12-14T10:07:12;5.00;99.90
33699;DHT22;20032;52.436;13.312;2023-12-14T10:09:37;4.90;99.90
33699;DHT22;20032;52.436;13.312;2023-12-14T10:12:06;4.90;99.90
33699;DHT22;20032;52.436;13.312;2023-12-14T10:14:32;4.90;99.90
33699;DHT22;20032;52.436;13.312;2023-12-14T10:16:59;4.90;99.90
33699;DHT22;20032;52.436;13.312;2023-12-14T10:19:42;5.00;99.90
33699;DHT22;20032;52.436;13.312;2023-12-14T10:22:08;5.00;99.90
33699;DHT22;20032;52.436;13.312;2023-12-14T10:24:35;5.00;99.90
33699;DHT22;20032;52.436;13.312;2023-12-14T10:27:05;4.90;99.90
33699;DHT22;20032;52.436;13.312;2023-12-14T10:29:33;5.00;99.90
33699;DHT22;20032;52.436;13.312;2023-12-14T10:32:03;5.00;99.90
33699;DHT22;20032;52.436;13.312;2023-12-14T10:34:29;5.00;99.90
33699;DHT22;20032;52.436;13.312;2023-12-14T10:36:55;4.90;99.90
33699;DHT22;20032;52.436;13.312;2023-12-14T10:39:20;5.00;99.90
33699;DHT22;20032;52.436;13.312;2023-12-14T10:41:47;4.90;99.90
33699;DHT22;20032;52.436;13.312;2023-12-14T10:44:14;5.00;99.90
33699;DHT22;20032;52.436;13.312;2023-12-14T10:46:40;5.00;99.90
33699;DHT22;20032;52.436;13.312;2023-12-14T10:49:07;5.00;99.90
33699;DHT22;20032;52.436;13.312;2023-12-14T10:51:33;5.00;99.90
33699;DHT22;20032;52.436;13.312;2023-12-14T10:54:03;5.00;99.90
33699;DHT22;20032;52.436;13.312;2023-12-14T10:56:31;5.10;99.90
33699;DHT22;20032;52.436;13.312;2023-12-14T10:58:57;5.10;99.90
33699;DHT22;20032;52.436;13.312;2023-12-14T11:01:24;5.10;99.90
33699;DHT22;20032;52.436;13.312;2023-12-14T11:03:53;5.10;99.90
33699;DHT22;20032;52.436;13.312;2023-12-14T11:08:57;5.20;99.90
33699;DHT22;20032;52.436;13.312;2023-12-14T11:11:27;5.20;99.90
33699;DHT22;20032;52.436;13.312;2023-12-14T11:13:53;5.10;99.90
33699;DHT22;20032;52.436;13.312;2023-12-14T11:16:20;5.10;99.90
33699;DHT22;20032;52.436;13.312;2023-12-14T11:18:46;5.00;99.90
33699;DHT22;20032;52.436;13.312;2023-12-14T11:21:18;5.10;99.90
33699;DHT22;20032;52.436;13.312;2023-12-14T11:23:45;5.10;99.90
33699;DHT22;20032;52.436;13.312;2023-12-14T11:26:11;5.10;99.90
33699;DHT22;20032;52.436;13.312;2023-12-14T11:28:45;5.10;99.90
33699;DHT22;20032;52.436;13.312;2023-12-14T11:31:12;5.10;99.90
33699;DHT22;20032;52.436;13.312;2023-12-14T11:33:38;5.10;99.90
33699;DHT22;20032;52.436;13.312;2023-12-14T11:36:04;5.10;99.90
33699;DHT22;20032;52.436;13.312;2023-12-14T11:38:30;5.10;99.90
33699;DHT22;20032;52.436;13.312;2023-12-14T11:40:59;5.10;99.90
33699;DHT22;20032;52.436;13.312;2023-12-14T11:43:25;5.10;99.90
33699;DHT22;20032;52.436;13.312;2023-12-14T11:45:52;5.10;99.90
33699;DHT22;20032;52.436;13.312;2023-12-14T11:48:18;5.10;99.90
33699;DHT22;20032;52.436;13.312;2023-12-14T11:50:45;5.10;99.90
33699;DHT22;20032;52.436;13.312;2023-12-14T11:53:11;5.10;99.90
33699;DHT22;20032;52.436;13.312;2023-12-14T11:55:40;5.10;99.90
33699;DHT22;20032;52.436;13.312;2023-12-14T11:58:05;5.10;99.90
33699;DHT22;20032;52.436;13.312;2023-12-14T12:00:32;5.10;99.90
33699;DHT22;20032;52.436;13.312;2023-12-14T12:03:19;5.10;99.90
33699;DHT22;20032;52.436;13.312;2023-12-14T12:05:48;5.10;99.90
33699;DHT22;20032;52.436;13.312;2023-12-14T12:08:15;5.20;99.90
33699;DHT22;20032;52.436;13.312;2023-12-14T12:10:42;5.10;99.90
33699;DHT22;20032;52.436;13.312;2023-12-14T12:15:40;5.10;99.90
33699;DHT22;20032;52.436;13.312;2023-12-14T12:18:07;5.10;99.90
33699;DHT22;20032;52.436;13.312;2023-12-14T12:20:33;5.20;99.90
33699;DHT22;20032;52.436;13.312;2023-12-14T12:22:59;5.10;99.90
33699;DHT22;20032;52.436;13.312;2023-12-14T12:25:25;5.10;99.90
33699;DHT22;20032;52.436;13.312;2023-12-14T12:27:52;5.20;99.90
33699;DHT22;20032;52.436;13.312;2023-12-14T12:30:17;5.20;99.90
33699;DHT22;20032;52.436;13.312;2023-12-14T12:32:44;5.30;99.90
33699;DHT22;20032;52.436;13.312;2023-12-14T12:35:09;5.30;99.90
33699;DHT22;20032;52.436;13.312;2023-12-14T12:37:36;5.30;99.90
33699;DHT22;20032;52.436;13.312;2023-12-14T12:40:01;5.30;99.90
33699;DHT22;20032;52.436;13.312;2023-12-14T12:42:27;5.30;99.90
33699;DHT22;20032;52.436;13.312;2023-12-14T12:44:54;5.30;99.90
33699;DHT22;20032;52.436;13.312;2023-12-14T12:47:20;5.20;99.90
33699;DHT22;20032;52.436;13.312;2023-12-14T12:49:47;5.20;99.90
33699;DHT22;20032;52.436;13.312;2023-12-14T12:52:12;5.10;99.90
33699;DHT22;20032;52.436;13.312;2023-12-14T12:54:38;5.10;99.90
33699;DHT22;20032;52.436;13.312;2023-12-14T12:57:03;5.10;99.90
33699;DHT22;20032;52.436;13.312;2023-12-14T12:59:30;5.10;99.90
33699;DHT22;20032;52.436;13.312;2023-12-14T13:01:55;5.00;99.90
33699;DHT22;20032;52.436;13.312;2023-12-14T13:04:21;5.10;99.90
33699;DHT22;20032;52.436;13.312;2023-12-14T13:06:48;5.10;99.90
33699;DHT22;20032;52.436;13.312;2023-12-14T13:09:15;5.10;99.90
33699;DHT22;20032;52.436;13.312;2023-12-14T13:11:42;5.20;99.90
33699;DHT22;20032;52.436;13.312;2023-12-14T13:14:08;5.20;99.90
33699;DHT22;20032;52.436;13.312;2023-12-14T13:16:35;5.20;99.90
33699;DHT22;20032;52.436;13.312;2023-12-14T13:19:03;5.20;99.90
33699;DHT22;20032;52.436;13.312;2023-12-14T13:21:30;5.20;99.90
33699;DHT22;20032;52.436;13.312;2023-12-14T13:23:55;5.20;99.90
33699;DHT22;20032;52.436;13.312;2023-12-14T13:26:25;5.20;99.90
33699;DHT22;20032;52.436;13.312;2023-12-14T13:28:56;5.20;99.90
33699;DHT22;20032;52.436;13.312;2023-12-14T13:31:22;5.20;99.90
33699;DHT22;20032;52.436;13.312;2023-12-14T13:33:48;5.20;99.90
33699;DHT22;20032;52.436;13.312;2023-12-14T13:36:14;5.10;99.90
33699;DHT22;20032;52.436;13.312;2023-12-14T13:38:41;5.10;99.90
33699;DHT22;20032;52.436;13.312;2023-12-14T13:41:07;5.20;99.90
33699;DHT22;20032;52.436;13.312;2023-12-14T13:43:32;5.20;99.90
33699;DHT22;20032;52.436;13.312;2023-12-14T13:45:58;5.20;99.90
33699;DHT22;20032;52.436;13.312;2023-12-14T13:48:28;5.10;99.90
33699;DHT22;20032;52.436;13.312;2023-12-14T13:50:54;5.10;99.90
33699;DHT22;20032;52.436;13.312;2023-12-14T13:53:19;5.10;99.90
33699;DHT22;20032;52.436;13.312;2023-12-14T13:55:52;5.20;99.90
33699;DHT22;20032;52.436;13.312;2023-12-14T13:58:18;5.20;99.90
33699;DHT22;20032;52.436;13.312;2023-12-14T14:00:44;5.30;99.90
33699;DHT22;20032;52.436;13.312;2023-12-14T14:03:09;5.30;99.90
33699;DHT22;20032;52.436;13.312;2023-12-14T14:05:37;5.30;99.90
33699;DHT22;20032;52.436;13.312;2023-12-14T14:08:03;5.30;99.90
33699;DHT22;20032;52.436;13.312;2023-12-14T14:10:31;5.30;99.90
33699;DHT22;20032;52.436;13.312;2023-12-14T14:12:56;5.20;99.90
33699;DHT22;20032;52.436;13.312;2023-12-14T14:15:22;5.20;99.90
33699;DHT22;20032;52.436;13.312;2023-12-14T14:17:48;5.20;99.90
33699;DHT22;20032;52.436;13.312;2023-12-14T14:20:17;5.30;99.90
33699;DHT22;20032;52.436;13.312;2023-12-14T14:22:45;5.30;99.90
33699;DHT22;20032;52.436;13.312;2023-12-14T14:25:13;5.20;99.90
33699;DHT22;20032;52.436;13.312;2023-12-14T14:27:43;5.20;99.90
33699;DHT22;20032;52.436;13.312;2023-12-14T14:30:12;5.20;99.90
33699;DHT22;20032;52.436;13.312;2023-12-14T14:32:38;5.20;99.90
33699;DHT22;20032;52.436;13.312;2023-12-14T14:35:04;5.10;99.90
33699;DHT22;20032;52.436;13.312;2023-12-14T14:37:30;5.20;99.90
33699;DHT22;20032;52.436;13.312;2023-12-14T14:39:57;5.10;99.90
33699;DHT22;20032;52.436;13.312;2023-12-14T14:42:22;5.10;99.90
33699;DHT22;20032;52.436;13.312;2023-12-14T14:44:48;5.20;99.90
33699;DHT22;20032;52.436;13.312;2023-12-14T14:47:14;5.10;99.90
33699;DHT22;20032;52.436;13.312;2023-12-14T14:49:40;4.90;99.90
33699;DHT22;20032;52.436;13.312;2023-12-14T14:52:06;4.90;99.90
33699;DHT22;20032;52.436;13.312;2023-12-14T14:54:31;4.90;99.90
33699;DHT22;20032;52.436;13.312;2023-12-14T14:56:57;4.90;99.90
33699;DHT22;20032;52.436;13.312;2023-12-14T14:59:22;4.90;99.90
33699;DHT22;20032;52.436;13.312;2023-12-14T15:01:48;4.90;99.90
33699;DHT22;20032;52.436;13.312;2023-12-14T15:04:13;5.00;99.90
33699;DHT22;20032;52.436;13.312;2023-12-14T15:06:40;5.00;99.90
33699;DHT22;20032;52.436;13.312;2023-12-14T15:09:06;5.10;99.90
33699;DHT22;20032;52.436;13.312;2023-12-14T15:11:33;5.00;99.90
33699;DHT22;20032;52.436;13.312;2023-12-14T15:13:58;4.90;99.90
33699;DHT22;20032;52.436;13.312;2023-12-14T15:16:24;4.90;99.90
33699;DHT22;20032;52.436;13.312;2023-12-14T15:18:51;4.90;99.90
33699;DHT22;20032;52.436;13.312;2023-12-14T15:21:17;4.80;99.90
33699;DHT22;20032;52.436;13.312;2023-12-14T15:23:43;4.90;99.90
33699;DHT22;20032;52.436;13.312;2023-12-14T15:26:09;4.90;99.90
33699;DHT22;20032;52.436;13.312;2023-12-14T15:28:36;4.90;99.90